Time;durP1;ratioP1;P1;durP2;ratioP2;P2;SDS_P1;SDS_P2;PMS_P1;PMS_P2;Temp;Humidity;BMP_temperature;BMP_pressure;BME280_temperature;BME280_humidity;BME280_pressure;Samples;Min_cycle;Max_cycle;Signal;HPM_P1;HPM_P2
2022/07/03 00:01:44;;;;;;;3.85;1.48;;;16.90;99.90;;;;;;5051040;28;20108;-52
2022/07/03 00:04:09;;;;;;;3.35;2.05;;;16.90;99.90;;;;;;5053385;28;20555;-51
2022/07/03 00:06:35;;;;;;;4.53;2.15;;;16.80;99.90;;;;;;5056487;28;20025;-52
2022/07/03 00:09:04;;;;;;;2.78;1.85;;;16.80;99.90;;;;;;5054936;28;20029;-56
2022/07/03 00:11:30;;;;;;;3.05;1.50;;;16.70;99.90;;;;;;5054698;28;20062;-52
2022/07/03 00:13:55;;;;;;;1.77;1.65;;;16.70;99.90;;;;;;5054794;28;20025;-52
2022/07/03 00:16:21;;;;;;;2.67;1.50;;;16.70;99.90;;;;;;5055905;28;20043;-54
2022/07/03 00:18:47;;;;;;;2.15;1.60;;;16.70;99.90;;;;;;5056013;28;20424;-53
2022/07/03 00:21:18;;;;;;;4.10;1.35;;;16.70;99.90;;;;;;5055671;28;20025;-53
2022/07/03 00:23:46;;;;;;;;;;;16.50;99.90;;;;;;5055636;28;20048;-56
2022/07/03 00:26:13;;;;;;;2.17;1.60;;;16.50;99.90;;;;;;5055742;28;19919;-55
2022/07/03 00:28:40;;;;;;;5.28;1.80;;;16.40;99.90;;;;;;5054157;28;20029;-55
2022/07/03 00:31:08;;;;;;;4.75;1.60;;;16.30;99.90;;;;;;5054284;28;20029;-56
2022/07/03 00:33:36;;;;;;;2.28;1.40;;;16.30;99.90;;;;;;5055438;28;20028;-53
2022/07/03 00:36:02;;;;;;;4.78;1.58;;;16.30;99.90;;;;;;5055767;28;20029;-54
2022/07/03 00:38:28;;;;;;;4.10;1.70;;;16.30;99.90;;;;;;5054154;28;20029;-53
2022/07/03 00:40:53;;;;;;;1.92;1.55;;;16.30;99.90;;;;;;5054720;28;20040;-52
2022/07/03 00:43:20;;;;;;;1.65;1.55;;;16.30;99.90;;;;;;5054838;28;20052;-52
2022/07/03 00:45:49;;;;;;;1.90;1.70;;;16.20;99.90;;;;;;5055351;28;20391;-55
2022/07/03 00:48:16;;;;;;;2.67;1.40;;;16.20;99.90;;;;;;5054139;28;20078;-54
2022/07/03 00:50:52;;;;;;;4.13;1.92;;;16.20;99.90;;;;;;5055109;28;20048;-56
2022/07/03 00:53:29;;;;;;;2.25;1.33;;;16.20;99.90;;;;;;5055125;28;20043;-51
2022/07/03 00:55:55;;;;;;;4.07;1.83;;;16.10;99.90;;;;;;5053679;28;20020;-56
2022/07/03 00:58:21;;;;;;;1.88;1.73;;;16.00;99.90;;;;;;5054954;28;20025;-54
2022/07/03 01:00:51;;;;;;;3.17;1.50;;;15.90;99.90;;;;;;5054963;28;20021;-52
2022/07/03 01:03:19;;;;;;;2.60;1.73;;;15.90;99.90;;;;;;5054291;28;20074;-53
2022/07/03 01:05:49;;;;;;;5.63;1.95;;;15.80;99.90;;;;;;5054916;28;20423;-52
2022/07/03 01:08:51;;;;;;;3.72;1.90;;;15.80;99.90;;;;;;5053688;28;20147;-54
2022/07/03 01:11:24;;;;;;;;;;;15.80;99.90;;;;;;5052624;28;20048;-55
2022/07/03 01:14:07;;;;;;;2.40;1.80;;;15.80;99.90;;;;;;5053594;28;19999;-53
2022/07/03 01:17:03;;;;;;;3.55;2.00;;;15.70;99.90;;;;;;5053085;28;20132;-57
2022/07/03 01:19:42;;;;;;;4.68;1.83;;;15.60;99.90;;;;;;5050923;28;20033;-55
2022/07/03 01:22:33;;;;;;;5.43;1.70;;;15.60;99.90;;;;;;5054502;28;20075;-54
2022/07/03 01:25:11;;;;;;;3.70;1.95;;;15.50;99.90;;;;;;5053256;28;20026;-51
2022/07/03 01:27:50;;;;;;;11.70;2.22;;;15.50;99.90;;;;;;5053278;28;20035;-51
2022/07/03 01:30:19;;;;;;;3.00;1.83;;;15.50;99.90;;;;;;5053690;28;20040;-56
2022/07/03 01:32:46;;;;;;;3.00;1.67;;;15.50;99.90;;;;;;5053336;28;20025;-53
2022/07/03 01:35:15;;;;;;;3.78;1.83;;;15.50;99.90;;;;;;5054409;28;20094;-54
2022/07/03 01:37:41;;;;;;;1.92;1.55;;;15.50;99.90;;;;;;5052966;28;20032;-51
2022/07/03 01:40:08;;;;;;;2.70;1.73;;;15.50;99.90;;;;;;5053437;28;20017;-54
2022/07/03 01:42:40;;;;;;;2.80;1.80;;;15.50;99.90;;;;;;5053952;28;20071;-56
2022/07/03 01:45:08;;;;;;;8.05;2.30;;;15.50;99.90;;;;;;5052917;28;20064;-56
2022/07/03 01:47:35;;;;;;;5.15;2.00;;;15.40;99.90;;;;;;5054375;28;20021;-56
2022/07/03 01:50:01;;;;;;;2.75;2.10;;;15.50;99.90;;;;;;5054073;28;20028;-52
2022/07/03 01:52:31;;;;;;;2.55;2.03;;;15.50;99.90;;;;;;5052704;28;20029;-54
2022/07/03 01:55:00;;;;;;;9.23;2.15;;;15.40;99.90;;;;;;5052636;28;20060;-56
2022/07/03 01:57:42;;;;;;;3.85;2.05;;;15.30;99.90;;;;;;5054259;28;20119;-55
2022/07/03 02:00:09;;;;;;;2.05;1.83;;;15.20;99.90;;;;;;5052627;28;20025;-56
2022/07/03 02:02:44;;;;;;;3.72;2.40;;;15.30;99.90;;;;;;5052574;28;20057;-55
2022/07/03 02:05:21;;;;;;;4.93;2.33;;;15.20;99.90;;;;;;5053425;28;20025;-52
2022/07/03 02:08:04;;;;;;;9.02;2.47;;;15.20;99.90;;;;;;5054288;28;20452;-56
2022/07/03 02:10:33;;;;;;;4.22;2.10;;;15.10;99.90;;;;;;5052681;28;20048;-56
2022/07/03 02:13:14;;;;;;;7.32;2.00;;;15.00;99.90;;;;;;5053989;28;20112;-53
2022/07/03 02:15:43;;;;;;;2.50;1.98;;;14.90;99.90;;;;;;5052295;28;20106;-51
2022/07/03 02:18:27;;;;;;;5.47;2.10;;;15.00;99.90;;;;;;5053468;28;20021;-55
2022/07/03 02:21:18;;;;;;;7.72;2.40;;;15.00;99.90;;;;;;5052548;28;20025;-55
2022/07/03 02:23:58;;;;;;;3.50;2.53;;;15.00;99.90;;;;;;5053142;28;20025;-54
2022/07/03 02:26:29;;;;;;;14.00;2.65;;;14.90;99.90;;;;;;5052840;28;20021;-52
2022/07/03 02:29:03;;;;;;;11.93;1.92;;;14.80;99.90;;;;;;5053433;28;20078;-52
2022/07/03 02:31:37;;;;;;;4.63;2.38;;;14.80;99.90;;;;;;5052276;28;20480;-54
2022/07/03 02:34:04;;;;;;;3.75;2.17;;;14.70;99.90;;;;;;5053605;28;20025;-54
2022/07/03 02:36:33;;;;;;;4.35;2.20;;;14.70;99.90;;;;;;5053394;28;20025;-52
2022/07/03 02:38:59;;;;;;;2.47;2.00;;;14.80;99.90;;;;;;5051949;28;20055;-51
2022/07/03 02:41:39;;;;;;;6.38;2.35;;;14.80;99.90;;;;;;5051817;28;20053;-53
2022/07/03 02:44:16;;;;;;;3.45;2.00;;;14.70;99.90;;;;;;5052718;28;20115;-54
2022/07/03 02:47:16;;;;;;;7.35;2.30;;;14.70;99.90;;;;;;5052162;28;20033;-50
2022/07/03 02:49:43;;;;;;;6.85;2.80;;;14.80;99.90;;;;;;5053198;28;20029;-56
2022/07/03 02:52:37;;;;;;;3.85;2.17;;;14.70;99.90;;;;;;5052025;28;20021;-52
2022/07/03 02:58:43;;;;;;;6.50;2.53;;;14.80;99.90;;;;;;5053301;28;20075;-52
2022/07/03 03:01:19;;;;;;;4.32;2.50;;;14.70;99.90;;;;;;5052854;28;20021;-53
2022/07/03 03:03:56;;;;;;;7.00;2.20;;;14.60;99.90;;;;;;5051585;28;20021;-50
2022/07/03 03:06:23;;;;;;;5.45;2.30;;;14.60;99.90;;;;;;5052453;28;20033;-55
2022/07/03 03:08:52;;;;;;;4.53;2.50;;;14.50;99.90;;;;;;5053059;28;20454;-53
2022/07/03 03:11:31;;;;;;;4.40;2.78;;;14.50;99.90;;;;;;5051239;28;20039;-50
2022/07/03 03:14:03;;;;;;;4.45;2.55;;;14.50;99.90;;;;;;5052817;28;20442;-50
2022/07/03 03:16:29;;;;;;;5.07;2.08;;;14.60;99.90;;;;;;5052588;28;20017;-52
2022/07/03 03:18:55;;;;;;;4.32;2.25;;;14.50;99.90;;;;;;5052769;28;20051;-54
2022/07/03 03:21:26;;;;;;;3.65;2.10;;;14.50;99.90;;;;;;5052522;28;20021;-54
2022/07/03 03:23:52;;;;;;;4.90;2.47;;;14.40;99.90;;;;;;5051434;28;20029;-51
2022/07/03 03:26:22;;;;;;;5.10;2.30;;;14.40;99.90;;;;;;5051374;28;20033;-53
2022/07/03 03:28:49;;;;;;;5.30;2.42;;;14.40;99.90;;;;;;5051369;28;20036;-50
2022/07/03 03:31:15;;;;;;;5.75;2.72;;;14.40;99.90;;;;;;5052431;28;20028;-50
2022/07/03 03:33:46;;;;;;;6.88;3.40;;;14.50;99.90;;;;;;5051638;28;20112;-55
2022/07/03 03:36:14;;;;;;;5.15;2.70;;;14.70;99.90;;;;;;5052412;28;20448;-52
2022/07/03 03:38:40;;;;;;;4.88;2.72;;;14.70;99.90;;;;;;5053217;28;20025;-53
2022/07/03 03:41:07;;;;;;;4.68;3.17;;;14.80;99.90;;;;;;5056477;28;20025;-53
2022/07/03 03:43:33;;;;;;;6.20;2.75;;;14.70;99.90;;;;;;5056481;28;20100;-56
2022/07/03 03:46:00;;;;;;;5.28;2.70;;;14.70;99.90;;;;;;5056439;28;20035;-53
2022/07/03 03:48:33;;;;;;;5.05;2.38;;;14.80;99.90;;;;;;5056421;28;20033;-55
2022/07/03 03:50:59;;;;;;;11.85;2.85;;;14.90;99.90;;;;;;5056372;28;20036;-50
2022/07/03 03:53:27;;;;;;;7.25;3.08;;;14.90;99.90;;;;;;5055672;28;20025;-51
2022/07/03 03:56:08;;;;;;;10.32;3.72;;;14.90;99.90;;;;;;5056257;28;20025;-53
2022/07/03 03:58:36;;;;;;;7.35;2.97;;;15.00;99.90;;;;;;5055345;28;20021;-53
2022/07/03 04:01:33;;;;;;;6.43;2.88;;;15.00;99.90;;;;;;5056054;28;20054;-53
2022/07/03 04:03:59;;;;;;;7.82;2.78;;;15.00;99.90;;;;;;5055718;28;20134;-54
2022/07/03 04:06:25;;;;;;;9.10;3.15;;;15.10;99.90;;;;;;5056140;28;20025;-56
2022/07/03 04:08:51;;;;;;;5.43;2.90;;;15.30;99.90;;;;;;5056006;28;20104;-53
2022/07/03 04:11:17;;;;;;;9.20;3.10;;;15.40;99.90;;;;;;5055849;28;20116;-54
2022/07/03 04:13:43;;;;;;;6.97;3.30;;;15.60;99.90;;;;;;5055937;28;20021;-50
2022/07/03 04:16:08;;;;;;;9.20;4.18;;;15.90;99.90;;;;;;5056081;28;20028;-53
2022/07/03 04:18:34;;;;;;;7.25;4.22;;;16.10;99.90;;;;;;5054951;28;20080;-51
2022/07/03 04:21:00;;;;;;;12.55;3.55;;;16.30;99.90;;;;;;5054378;28;20021;-51
2022/07/03 04:23:26;;;;;;;8.70;3.17;;;16.60;99.90;;;;;;5055772;28;20073;-53
2022/07/03 04:25:52;;;;;;;14.02;3.10;;;16.90;99.90;;;;;;5055689;28;20059;-52
2022/07/03 04:28:17;;;;;;;7.80;2.67;;;17.10;99.90;;;;;;5055601;28;20112;-50
2022/07/03 04:30:43;;;;;;;3.88;2.30;;;17.30;99.90;;;;;;5054194;28;20070;-53
2022/07/03 04:33:08;;;;;;;6.50;2.40;;;17.60;99.90;;;;;;5055342;28;20032;-54
2022/07/03 04:35:34;;;;;;;3.20;2.60;;;17.70;99.90;;;;;;5055203;28;20021;-51
2022/07/03 04:38:00;;;;;;;4.90;2.10;;;18.00;99.90;;;;;;5056059;28;20021;-55
2022/07/03 04:40:25;;;;;;;3.33;2.17;;;18.20;99.90;;;;;;5056166;28;20017;-53
2022/07/03 04:42:51;;;;;;;3.15;2.00;;;18.50;99.90;;;;;;5056534;28;20075;-53
2022/07/03 04:45:16;;;;;;;3.22;2.25;;;18.80;99.90;;;;;;5054525;28;20028;-53
2022/07/03 04:47:42;;;;;;;3.78;2.63;;;19.20;99.90;;;;;;5054934;28;20021;-55
2022/07/03 04:50:08;;;;;;;4.60;2.70;;;19.50;99.90;;;;;;5055638;28;20039;-54
2022/07/03 04:52:33;;;;;;;5.28;3.05;;;19.70;99.90;;;;;;5054668;28;20036;-50
2022/07/03 04:54:59;;;;;;;3.95;2.30;;;19.80;99.90;;;;;;5055242;28;20025;-54
2022/07/03 04:57:24;;;;;;;4.47;2.65;;;20.00;99.90;;;;;;5054417;28;20017;-54
2022/07/03 04:59:50;;;;;;;3.72;2.58;;;20.30;99.90;;;;;;5054347;28;20017;-54
2022/07/03 05:02:16;;;;;;;2.70;2.50;;;20.50;99.90;;;;;;5054100;28;20021;-54
2022/07/03 05:04:41;;;;;;;3.25;2.50;;;20.60;99.90;;;;;;5054338;28;20044;-51
2022/07/03 05:07:07;;;;;;;3.20;2.33;;;21.00;99.90;;;;;;5054479;28;20107;-54
2022/07/03 05:09:32;;;;;;;4.60;2.42;;;21.20;99.90;;;;;;5054243;28;20079;-56
2022/07/03 05:11:58;;;;;;;3.65;2.60;;;21.50;99.90;;;;;;5055448;28;20045;-55
2022/07/03 05:14:23;;;;;;;5.28;2.78;;;21.80;99.90;;;;;;5055603;28;20028;-53
2022/07/03 05:16:49;;;;;;;3.58;2.63;;;22.00;99.90;;;;;;5053818;28;20033;-54
2022/07/03 05:19:15;;;;;;;4.18;2.55;;;22.40;99.90;;;;;;5053996;28;20021;-53
2022/07/03 05:21:40;;;;;;;3.55;2.67;;;22.70;99.90;;;;;;5054384;28;20118;-55
2022/07/03 05:24:06;;;;;;;3.97;2.40;;;23.10;99.90;;;;;;5054708;28;20044;-54
2022/07/03 05:26:32;;;;;;;4.85;2.85;;;23.40;99.90;;;;;;5055069;28;20036;-50
2022/07/03 05:28:57;;;;;;;3.08;2.20;;;23.70;99.90;;;;;;5053822;28;20025;-50
2022/07/03 05:31:23;;;;;;;7.00;4.57;;;24.00;99.90;;;;;;5053903;28;20033;-50
2022/07/03 05:33:49;;;;;;;5.57;3.75;;;24.40;99.90;;;;;;5055413;28;20021;-52
2022/07/03 05:36:14;;;;;;;6.28;2.70;;;24.60;99.90;;;;;;5053576;28;20426;-49
2022/07/03 05:41:24;;;;;;;2.45;2.25;;;25.10;99.90;;;;;;5055192;28;20075;-52
2022/07/03 05:43:50;;;;;;;4.50;2.53;;;25.50;99.90;;;;;;5035718;28;20022;-53
2022/07/03 05:46:15;;;;;;;3.58;2.25;;;25.80;99.90;;;;;;5033838;28;20026;-50
2022/07/03 05:48:41;;;;;;;4.40;2.42;;;26.20;99.90;;;;;;5035365;28;20029;-52
2022/07/03 05:51:06;;;;;;;6.10;3.38;;;26.50;99.90;;;;;;5034746;28;20025;-52
2022/07/03 05:53:32;;;;;;;3.83;2.80;;;27.00;99.90;;;;;;5034853;28;20112;-55
2022/07/03 05:55:58;;;;;;;4.57;2.40;;;27.40;99.90;;;;;;5033226;28;20041;-54
2022/07/03 05:58:24;;;;;;;3.13;1.88;;;27.90;99.90;;;;;;5033326;28;20053;-55
2022/07/03 06:00:49;;;;;;;2.92;2.03;;;28.10;99.90;;;;;;5034519;28;20022;-51
2022/07/03 06:03:15;;;;;;;4.43;2.13;;;28.50;99.90;;;;;;5034035;28;20014;-50
2022/07/03 06:05:40;;;;;;;2.60;2.10;;;28.80;99.90;;;;;;5033188;28;20025;-49
2022/07/03 06:08:06;;;;;;;5.45;2.30;;;29.20;99.90;;;;;;5033095;28;20116;-48
2022/07/03 06:10:32;;;;;;;4.32;2.30;;;29.50;99.50;;;;;;5034649;28;20056;-49
2022/07/03 06:12:58;;;;;;;2.88;2.20;;;30.00;98.90;;;;;;5042607;28;20032;-50
2022/07/03 06:15:24;;;;;;;1.65;1.50;;;30.20;97.40;;;;;;5033224;28;20025;-52
2022/07/03 06:17:50;;;;;;;3.67;1.77;;;30.70;98.20;;;;;;5034167;28;20097;-49
2022/07/03 06:20:15;;;;;;;3.45;2.30;;;31.10;96.20;;;;;;5032779;28;20028;-48
2022/07/03 06:22:41;;;;;;;3.47;1.90;;;31.20;93.90;;;;;;5033395;28;20024;-51
2022/07/03 06:25:07;;;;;;;2.65;2.15;;;30.90;94.50;;;;;;5034240;28;20052;-48
2022/07/03 06:27:33;;;;;;;4.28;2.17;;;30.70;93.80;;;;;;5034006;28;20088;-50
2022/07/03 06:29:59;;;;;;;2.92;1.63;;;31.10;93.60;;;;;;5032696;28;20061;-52
2022/07/03 06:32:25;;;;;;;1.88;1.75;;;31.60;92.50;;;;;;5033908;28;20045;-53
2022/07/03 06:34:50;;;;;;;2.90;2.08;;;32.10;92.80;;;;;;5034092;28;20026;-49
2022/07/03 06:37:16;;;;;;;4.85;1.80;;;32.50;91.10;;;;;;5034444;28;20036;-51
2022/07/03 06:39:42;;;;;;;1.88;1.67;;;33.10;90.30;;;;;;5033775;28;20112;-49
2022/07/03 06:42:08;;;;;;;1.95;1.85;;;33.30;89.10;;;;;;5032885;28;20021;-51
2022/07/03 06:44:33;;;;;;;2.38;1.95;;;33.90;85.60;;;;;;5034063;28;20022;-53
2022/07/03 06:47:02;;;;;;;6.18;2.10;;;34.20;85.60;;;;;;5049099;28;20032;-54
2022/07/03 06:49:29;;;;;;;2.03;1.52;;;34.40;81.50;;;;;;5046063;28;20025;-53
2022/07/03 06:51:55;;;;;;;4.13;1.80;;;34.80;82.00;;;;;;5053231;28;20078;-54
2022/07/03 06:54:20;;;;;;;2.17;1.67;;;34.80;81.80;;;;;;5054650;28;20021;-54
2022/07/03 06:56:46;;;;;;;3.78;1.83;;;35.40;79.60;;;;;;5054421;28;20030;-55
2022/07/03 06:59:11;;;;;;;2.17;1.70;;;35.90;76.80;;;;;;5053043;28;20116;-53
2022/07/03 07:01:37;;;;;;;1.88;1.60;;;36.50;75.80;;;;;;5052659;28;20426;-54
2022/07/03 07:04:02;;;;;;;2.08;1.85;;;36.50;75.00;;;;;;5053712;28;20021;-57
2022/07/03 07:06:29;;;;;;;1.85;1.60;;;36.70;71.40;;;;;;5053822;28;20056;-56
2022/07/03 07:08:54;;;;;;;9.77;2.40;;;37.10;72.80;;;;;;5052418;28;20092;-52
2022/07/03 07:11:20;;;;;;;2.28;1.70;;;36.50;71.10;;;;;;5052360;28;20118;-55
2022/07/03 07:13:45;;;;;;;4.78;2.00;;;36.90;70.20;;;;;;5053100;28;20156;-55
2022/07/03 07:16:11;;;;;;;5.53;2.05;;;37.40;68.90;;;;;;5053934;28;20498;-54
2022/07/03 07:18:39;;;;;;;1.70;1.60;;;38.00;68.10;;;;;;5053459;28;20017;-55
2022/07/03 07:21:05;;;;;;;2.47;1.70;;;38.10;66.10;;;;;;5053018;28;20095;-56
2022/07/03 07:23:30;;;;;;;1.63;1.50;;;38.80;65.80;;;;;;5053350;28;20415;-56
2022/07/03 07:26:07;;;;;;;3.80;1.73;;;38.90;64.30;;;;;;5052293;28;20148;-57
2022/07/03 07:28:34;;;;;;;1.80;1.70;;;39.40;65.80;;;;;;5052127;28;20024;-55
2022/07/03 07:31:00;;;;;;;4.75;1.52;;;39.90;66.10;;;;;;5053251;28;20029;-57
2022/07/03 07:33:26;;;;;;;2.90;1.60;;;40.50;60.90;;;;;;5051834;28;20120;-54
2022/07/03 07:35:51;;;;;;;4.03;1.80;;;40.60;59.40;;;;;;5051802;28;20033;-55
2022/07/03 07:38:17;;;;;;;3.55;1.52;;;40.20;59.60;;;;;;5053258;28;20087;-57
2022/07/03 07:40:43;;;;;;;2.50;1.52;;;40.70;59.30;;;;;;5053066;28;20024;-57
2022/07/03 07:43:09;;;;;;;2.30;1.70;;;41.00;59.00;;;;;;5053125;28;20462;-55
2022/07/03 07:45:34;;;;;;;2.63;1.60;;;41.40;57.20;;;;;;5052938;28;20096;-54
2022/07/03 07:48:00;;;;;;;2.83;1.40;;;41.30;57.80;;;;;;5053425;28;20406;-56
2022/07/03 07:50:26;;;;;;;2.80;1.65;;;41.40;57.10;;;;;;5052800;28;20029;-53
2022/07/03 07:52:52;;;;;;;2.00;1.90;;;41.40;55.90;;;;;;5041310;28;20030;-57
2022/07/03 07:55:20;;;;;;;2.78;1.80;;;41.30;56.20;;;;;;5031443;28;20029;-55
2022/07/03 07:57:46;;;;;;;9.57;1.90;;;41.70;56.00;;;;;;5032869;28;20029;-57
2022/07/03 08:00:15;;;;;;;2.30;1.70;;;42.10;55.90;;;;;;5032778;28;20484;-56
2022/07/03 08:05:35;;;;;;;7.50;1.80;;;42.10;55.40;;;;;;5033512;28;20113;-58
2022/07/03 08:08:08;;;;;;;2.13;1.50;;;43.00;53.60;;;;;;5032827;28;20025;-56
2022/07/03 08:10:35;;;;;;;2.88;2.03;;;43.40;52.10;;;;;;5032094;28;20061;-56
2022/07/03 08:13:01;;;;;;;4.00;1.67;;;43.40;52.40;;;;;;5032771;28;20030;-55
2022/07/03 08:15:27;;;;;;;1.70;1.60;;;42.90;52.10;;;;;;5031445;28;20476;-56
2022/07/03 08:17:53;;;;;;;2.45;1.75;;;41.90;53.70;;;;;;5032767;28;20056;-57
2022/07/03 08:20:19;;;;;;;1.48;1.38;;;41.90;51.70;;;;;;5031351;28;20483;-57
2022/07/03 08:22:44;;;;;;;4.25;1.85;;;42.10;53.20;;;;;;5031544;28;20022;-58
2022/07/03 08:25:10;;;;;;;1.65;1.55;;;42.60;51.70;;;;;;5033789;28;20021;-58
2022/07/03 08:27:54;;;;;;;4.88;1.65;;;43.40;51.60;;;;;;5038028;28;20048;-52
2022/07/03 08:30:20;;;;;;;4.47;1.50;;;43.60;51.90;;;;;;5036484;28;20033;-58
2022/07/03 08:32:48;;;;;;;1.65;1.55;;;44.10;50.50;;;;;;5036212;28;20136;-55
2022/07/03 08:35:14;;;;;;;7.45;1.85;;;44.20;51.20;;;;;;5036367;28;20040;-57
2022/07/03 08:37:40;;;;;;;4.53;1.48;;;44.60;49.50;;;;;;5035215;28;20361;-54
2022/07/03 08:40:10;;;;;;;2.45;1.73;;;44.30;49.60;;;;;;5036352;28;20079;-54
2022/07/03 08:42:45;;;;;;;1.65;1.52;;;44.20;49.10;;;;;;5035984;28;20021;-55
2022/07/03 08:45:19;;;;;;;2.60;1.67;;;44.50;48.90;;;;;;5034736;28;20027;-54
2022/07/03 08:47:46;;;;;;;4.45;1.60;;;44.70;48.00;;;;;;5035015;28;20026;-55
2022/07/03 08:50:13;;;;;;;3.00;1.42;;;45.30;48.70;;;;;;5034592;28;20029;-53
2022/07/03 08:52:40;;;;;;;1.83;1.55;;;45.20;47.50;;;;;;5051368;28;20020;-51
2022/07/03 08:55:07;;;;;;;1.48;1.38;;;45.60;47.60;;;;;;5074753;28;20016;-51
2022/07/03 08:57:35;;;;;;;2.20;1.50;;;45.80;47.70;;;;;;5075078;28;20108;-52
2022/07/03 09:00:04;;;;;;;3.10;1.50;;;45.80;47.20;;;;;;5074499;28;20020;-55
2022/07/03 09:02:31;;;;;;;1.40;1.30;;;45.60;47.50;;;;;;5074352;28;20032;-54
2022/07/03 09:04:58;;;;;;;1.92;1.30;;;45.80;47.90;;;;;;5075545;28;20025;-57
2022/07/03 09:07:26;;;;;;;1.50;1.30;;;45.70;47.50;;;;;;5074242;28;20051;-57
2022/07/03 09:09:52;;;;;;;3.42;1.35;;;45.60;46.40;;;;;;5074826;28;20166;-54
2022/07/03 09:12:18;;;;;;;2.75;1.50;;;45.60;45.90;;;;;;5075429;28;20092;-54
2022/07/03 09:14:43;;;;;;;2.17;1.50;;;45.50;45.60;;;;;;5074131;28;20017;-52
2022/07/03 09:17:10;;;;;;;1.52;1.42;;;45.10;45.50;;;;;;5075596;28;20029;-54
2022/07/03 09:19:47;;;;;;;1.98;1.77;;;45.20;45.60;;;;;;5074378;28;20024;-56
2022/07/03 09:22:27;;;;;;;1.75;1.38;;;45.60;45.40;;;;;;5073924;28;20032;-52
2022/07/03 09:25:02;;;;;;;1.30;1.20;;;45.80;45.20;;;;;;5074306;28;20021;-56
2022/07/03 09:27:28;;;;;;;3.65;1.40;;;45.70;44.70;;;;;;5075638;28;20376;-54
2022/07/03 09:29:59;;;;;;;1.50;1.40;;;45.90;43.30;;;;;;5074788;28;20485;-57
2022/07/03 09:32:25;;;;;;;1.48;1.38;;;46.60;43.70;;;;;;5073727;28;20433;-55
2022/07/03 09:35:15;;;;;;;4.90;1.50;;;46.60;43.30;;;;;;5074992;28;20387;-56
2022/07/03 09:37:48;;;;;;;3.40;1.60;;;47.00;41.20;;;;;;5075047;28;20025;-55
2022/07/03 09:40:14;;;;;;;3.00;1.90;;;46.70;42.80;;;;;;5074772;28;20016;-55
2022/07/03 09:42:39;;;;;;;1.77;1.67;;;47.20;42.50;;;;;;5073706;28;20025;-54
2022/07/03 09:45:05;;;;;;;3.33;1.70;;;47.30;41.40;;;;;;5073989;28;20021;-57
2022/07/03 09:47:31;;;;;;;1.73;1.60;;;47.10;41.20;;;;;;5074753;28;20027;-58
2022/07/03 09:49:56;;;;;;;1.40;1.30;;;47.30;41.30;;;;;;5075012;28;20474;-58
2022/07/03 09:52:46;;;;;;;2.45;1.65;;;46.90;39.90;;;;;;5074511;28;20495;-58
2022/07/03 09:55:12;;;;;;;1.55;1.45;;;47.60;40.30;;;;;;5074788;28;20033;-56
2022/07/03 09:57:43;;;;;;;1.40;1.30;;;47.80;39.90;;;;;;5073223;28;20028;-58
2022/07/03 10:00:13;;;;;;;1.50;1.40;;;47.80;40.20;;;;;;5074526;28;20509;-57
2022/07/03 10:02:56;;;;;;;5.68;3.83;;;47.70;40.10;;;;;;5073150;28;20108;-54
2022/07/03 10:05:24;;;;;;;2.17;1.40;;;47.00;39.90;;;;;;5073345;28;20035;-53
2022/07/03 10:07:55;;;;;;;2.00;1.30;;;46.50;41.10;;;;;;5073554;28;20028;-55
2022/07/03 10:10:23;;;;;;;6.32;1.42;;;46.60;40.30;;;;;;5074078;28;20051;-53
2022/07/03 10:12:50;;;;;;;6.45;1.38;;;46.70;40.70;;;;;;5073179;28;20036;-52
2022/07/03 10:15:16;;;;;;;2.08;1.17;;;46.10;40.80;;;;;;5072813;28;20024;-52
2022/07/03 10:17:43;;;;;;;5.28;3.00;;;46.40;40.90;;;;;;5074709;28;20498;-53
2022/07/03 10:20:13;;;;;;;1.70;1.40;;;46.90;40.50;;;;;;5073062;28;20031;-53
2022/07/03 10:22:41;;;;;;;4.72;1.70;;;46.70;40.20;;;;;;5072837;28;20029;-50
2022/07/03 10:25:08;;;;;;;1.85;1.15;;;45.30;40.70;;;;;;5072748;28;20115;-50
2022/07/03 10:27:36;;;;;;;2.20;1.20;;;44.40;41.20;;;;;;5073010;28;20020;-55
2022/07/03 10:30:02;;;;;;;1.63;1.02;;;44.10;42.60;;;;;;5073866;28;20027;-53
2022/07/03 10:32:28;;;;;;;2.05;0.90;;;44.50;42.20;;;;;;5073759;28;20031;-55
2022/07/03 10:34:54;;;;;;;1.35;1.17;;;44.30;42.60;;;;;;5073821;28;20032;-57
2022/07/03 10:37:21;;;;;;;1.08;0.75;;;43.90;43.20;;;;;;5072769;28;20031;-57
2022/07/03 10:46:14;;;;;;;2.38;0.80;;;40.70;45.30;;;;;;5073876;28;20031;-50
2022/07/03 10:49:08;;;;;;;3.97;0.90;;;39.70;45.00;;;;;;5071788;28;20020;-54
2022/07/03 10:51:59;;;;;;;5.57;0.90;;;39.00;46.30;;;;;;5073657;28;20020;-52
2022/07/03 10:54:30;;;;;;;1.08;0.75;;;38.30;46.80;;;;;;5073563;28;20028;-52
2022/07/03 10:56:58;;;;;;;;;;;37.80;47.60;;;;;;5073803;28;20020;-53
2022/07/03 10:59:36;;;;;;;5.95;1.15;;;37.10;49.10;;;;;;5072438;28;19904;-51
2022/07/03 11:02:17;;;;;;;6.05;4.15;;;36.70;50.00;;;;;;5072146;28;20166;-49
2022/07/03 11:05:00;;;;;;;16.80;11.20;;;36.20;50.10;;;;;;5073321;28;20032;-52
2022/07/03 11:07:48;;;;;;;4.18;3.78;;;35.80;49.70;;;;;;5072071;28;20031;-50
2022/07/03 11:10:19;;;;;;;2.00;1.80;;;35.60;50.80;;;;;;5073872;28;20028;-56
2022/07/03 11:13:01;;;;;;;15.90;11.20;;;35.60;50.50;;;;;;5072173;28;20035;-50
2022/07/03 11:15:34;;;;;;;18.38;14.57;;;35.30;51.20;;;;;;5071979;28;20078;-51
2022/07/03 11:20:52;;;;;;;6.65;4.57;;;34.50;52.40;;;;;;5073737;28;20108;-56
2022/07/03 11:23:27;;;;;;;9.65;6.45;;;34.10;52.80;;;;;;5072161;28;20035;-53
2022/07/03 11:26:07;;;;;;;15.18;10.73;;;34.00;53.90;;;;;;5071959;28;20050;-50
2022/07/03 11:28:36;;;;;;;12.13;7.53;;;33.50;54.00;;;;;;5073415;28;20028;-55
2022/07/03 11:31:11;;;;;;;3.60;1.55;;;33.40;53.80;;;;;;5073342;28;20352;-50
2022/07/03 11:33:46;;;;;;;2.25;1.83;;;33.40;53.80;;;;;;5073336;28;20024;-51
2022/07/03 11:36:32;;;;;;;4.78;2.00;;;33.50;53.30;;;;;;5072124;28;20051;-53
2022/07/03 11:38:58;;;;;;;3.40;1.00;;;33.50;53.60;;;;;;5073185;28;20024;-56
2022/07/03 11:41:36;;;;;;;4.05;1.20;;;33.60;53.70;;;;;;5073012;28;20020;-55
2022/07/03 11:44:04;;;;;;;1.80;1.40;;;33.80;53.40;;;;;;5071895;28;20025;-52
2022/07/03 11:46:32;;;;;;;7.07;1.50;;;33.90;54.40;;;;;;5072576;28;20033;-55
2022/07/03 11:49:04;;;;;;;1.10;1.00;;;33.80;53.90;;;;;;5071815;28;20395;-50
2022/07/03 11:51:30;;;;;;;1.40;1.08;;;33.80;54.30;;;;;;5071716;28;20068;-53
2022/07/03 11:53:55;;;;;;;7.80;1.38;;;33.70;53.60;;;;;;5073054;28;20082;-54
2022/07/03 11:56:21;;;;;;;3.55;1.02;;;33.60;54.20;;;;;;5072743;28;20067;-52
2022/07/03 11:58:57;;;;;;;3.92;1.17;;;33.40;54.80;;;;;;5071693;28;20027;-52
2022/07/03 12:01:26;;;;;;;3.38;1.30;;;33.20;54.20;;;;;;5075884;28;20025;-55
2022/07/03 12:04:02;;;;;;;1.30;0.77;;;33.10;54.80;;;;;;5076681;28;20440;-56
2022/07/03 12:06:37;;;;;;;0.93;0.77;;;33.10;55.20;;;;;;5075541;28;20025;-54
2022/07/03 12:09:11;;;;;;;3.65;0.80;;;32.90;54.90;;;;;;5075981;28;20059;-55
2022/07/03 12:11:37;;;;;;;1.40;0.98;;;32.70;54.40;;;;;;5076495;28;20483;-52
2022/07/03 12:14:02;;;;;;;1.25;0.98;;;32.70;54.60;;;;;;5075306;28;20124;-52
2022/07/03 12:16:33;;;;;;;1.98;0.73;;;32.60;54.70;;;;;;5075478;28;20032;-54
2022/07/03 12:19:04;;;;;;;1.13;0.75;;;32.60;54.20;;;;;;5076069;28;20020;-52
2022/07/03 12:21:37;;;;;;;1.42;0.90;;;32.50;54.70;;;;;;5076376;28;20453;-51
2022/07/03 12:24:12;;;;;;;1.85;0.90;;;32.60;54.70;;;;;;5075127;28;20489;-55
2022/07/03 12:26:39;;;;;;;2.92;1.02;;;32.50;53.90;;;;;;5077078;28;20020;-53
2022/07/03 12:29:18;;;;;;;3.03;0.70;;;32.50;54.50;;;;;;5075031;28;20024;-58
2022/07/03 12:31:45;;;;;;;3.17;0.90;;;32.40;54.60;;;;;;5074846;28;20036;-58
2022/07/03 12:34:12;;;;;;;3.53;0.90;;;32.40;55.10;;;;;;5076155;28;20029;-57
2022/07/03 12:36:38;;;;;;;2.65;0.90;;;32.30;55.20;;;;;;5075043;28;20020;-54
2022/07/03 12:39:04;;;;;;;1.10;1.00;;;32.00;55.80;;;;;;5074847;28;20027;-52
2022/07/03 12:41:30;;;;;;;2.33;1.08;;;32.00;55.50;;;;;;5074775;28;20032;-57
2022/07/03 12:43:58;;;;;;;1.27;0.80;;;31.90;55.90;;;;;;5076120;28;20597;-55
2022/07/03 12:46:41;;;;;;;3.15;0.80;;;32.00;56.30;;;;;;5076589;28;20020;-57
2022/07/03 12:49:09;;;;;;;2.63;0.90;;;32.00;56.00;;;;;;5074642;28;20025;-59
2022/07/03 12:51:53;;;;;;;2.25;0.80;;;31.90;55.60;;;;;;5075326;28;20111;-58
2022/07/03 12:54:33;;;;;;;5.10;0.70;;;31.90;55.10;;;;;;5074559;28;20078;-58
2022/07/03 13:00:21;;;;;;;0.80;0.70;;;31.70;55.10;;;;;;5076306;28;20486;-58
2022/07/03 13:02:48;;;;;;;1.33;0.70;;;31.60;54.80;;;;;;5075930;28;20054;-57
2022/07/03 13:05:15;;;;;;;2.10;0.70;;;31.40;55.00;;;;;;5074423;28;20074;-58
2022/07/03 13:07:42;;;;;;;0.85;0.60;;;31.40;54.80;;;;;;5075613;28;20031;-57
2022/07/03 13:10:09;;;;;;;1.85;0.82;;;31.60;55.40;;;;;;5074316;28;20035;-59
2022/07/03 13:12:44;;;;;;;2.53;1.55;;;31.50;54.30;;;;;;5073790;28;20017;-57
2022/07/03 13:15:10;;;;;;;3.72;0.82;;;31.30;54.70;;;;;;5074859;28;20024;-58
2022/07/03 13:17:54;;;;;;;1.23;1.00;;;31.30;55.90;;;;;;5074311;28;20044;-59
2022/07/03 13:20:21;;;;;;;1.67;0.77;;;31.20;56.00;;;;;;5075447;28;20021;-56
2022/07/03 13:22:51;;;;;;;0.70;0.70;;;31.30;55.90;;;;;;5075242;28;20024;-59